sensor_id;sensor_type;location;lat;lon;timestamp;temperature;humidity
32173;DHT22;18679;45.190;5.722;2022-08-14T00:02:07;29.30;22.50
32173;DHT22;18679;45.190;5.722;2022-08-14T00:05:10;29.20;22.70
32173;DHT22;18679;45.190;5.722;2022-08-14T00:08:12;29.10;22.90
32173;DHT22;18679;45.190;5.722;2022-08-14T00:11:13;29.00;23.00
32173;DHT22;18679;45.190;5.722;2022-08-14T00:14:14;29.00;23.10
32173;DHT22;18679;45.190;5.722;2022-08-14T00:17:15;28.90;23.20
32173;DHT22;18679;45.190;5.722;2022-08-14T00:20:17;28.90;23.30
32173;DHT22;18679;45.190;5.722;2022-08-14T00:23:20;28.90;23.40
32173;DHT22;18679;45.190;5.722;2022-08-14T00:26:21;28.90;23.60
32173;DHT22;18679;45.190;5.722;2022-08-14T00:29:23;28.80;23.80
32173;DHT22;18679;45.190;5.722;2022-08-14T00:32:24;28.70;23.90
32173;DHT22;18679;45.190;5.722;2022-08-14T00:35:24;28.70;24.00
32173;DHT22;18679;45.190;5.722;2022-08-14T00:38:25;28.60;24.20
32173;DHT22;18679;45.190;5.722;2022-08-14T00:41:30;28.60;24.40
32173;DHT22;18679;45.190;5.722;2022-08-14T00:44:31;28.50;24.50
32173;DHT22;18679;45.190;5.722;2022-08-14T00:47:32;28.50;24.50
32173;DHT22;18679;45.190;5.722;2022-08-14T00:50:35;28.40;24.50
32173;DHT22;18679;45.190;5.722;2022-08-14T00:53:37;28.40;24.50
32173;DHT22;18679;45.190;5.722;2022-08-14T00:56:39;28.40;24.40
32173;DHT22;18679;45.190;5.722;2022-08-14T00:59:40;28.30;24.30
32173;DHT22;18679;45.190;5.722;2022-08-14T01:02:43;28.40;24.20
32173;DHT22;18679;45.190;5.722;2022-08-14T01:05:45;28.40;24.20
32173;DHT22;18679;45.190;5.722;2022-08-14T01:08:49;28.40;24.10
32173;DHT22;18679;45.190;5.722;2022-08-14T01:11:52;28.50;24.10
32173;DHT22;18679;45.190;5.722;2022-08-14T01:14:53;28.50;24.10
32173;DHT22;18679;45.190;5.722;2022-08-14T01:17:54;28.50;24.00
32173;DHT22;18679;45.190;5.722;2022-08-14T01:21:14;28.40;23.90
32173;DHT22;18679;45.190;5.722;2022-08-14T01:24:16;28.40;24.00
32173;DHT22;18679;45.190;5.722;2022-08-14T01:27:19;28.40;24.10
32173;DHT22;18679;45.190;5.722;2022-08-14T01:30:21;28.30;24.20
32173;DHT22;18679;45.190;5.722;2022-08-14T01:33:25;28.30;24.30
32173;DHT22;18679;45.190;5.722;2022-08-14T01:36:30;28.30;24.40
32173;DHT22;18679;45.190;5.722;2022-08-14T01:39:37;28.30;24.50
32173;DHT22;18679;45.190;5.722;2022-08-14T01:42:41;28.20;24.50
32173;DHT22;18679;45.190;5.722;2022-08-14T01:45:44;28.20;24.60
32173;DHT22;18679;45.190;5.722;2022-08-14T01:48:45;28.20;24.80
32173;DHT22;18679;45.190;5.722;2022-08-14T01:51:47;28.20;25.00
32173;DHT22;18679;45.190;5.722;2022-08-14T01:54:48;28.20;25.20
32173;DHT22;18679;45.190;5.722;2022-08-14T01:57:49;28.10;25.20
32173;DHT22;18679;45.190;5.722;2022-08-14T02:00:51;28.10;25.30
32173;DHT22;18679;45.190;5.722;2022-08-14T02:03:53;28.10;25.40
32173;DHT22;18679;45.190;5.722;2022-08-14T02:06:54;28.10;25.30
32173;DHT22;18679;45.190;5.722;2022-08-14T02:09:55;28.00;25.50
32173;DHT22;18679;45.190;5.722;2022-08-14T02:12:56;28.00;25.40
32173;DHT22;18679;45.190;5.722;2022-08-14T02:15:57;28.00;25.40
32173;DHT22;18679;45.190;5.722;2022-08-14T02:19:02;27.90;25.40
32173;DHT22;18679;45.190;5.722;2022-08-14T02:22:04;27.90;25.50
32173;DHT22;18679;45.190;5.722;2022-08-14T02:25:06;27.90;25.60
32173;DHT22;18679;45.190;5.722;2022-08-14T02:28:07;27.90;25.70
32173;DHT22;18679;45.190;5.722;2022-08-14T02:31:08;27.80;25.70
32173;DHT22;18679;45.190;5.722;2022-08-14T02:37:13;27.70;25.90
32173;DHT22;18679;45.190;5.722;2022-08-14T02:40:19;27.70;25.90
32173;DHT22;18679;45.190;5.722;2022-08-14T02:43:21;27.70;26.10
32173;DHT22;18679;45.190;5.722;2022-08-14T02:46:22;27.60;26.30
32173;DHT22;18679;45.190;5.722;2022-08-14T02:49:24;27.50;26.40
32173;DHT22;18679;45.190;5.722;2022-08-14T02:52:28;27.40;26.50
32173;DHT22;18679;45.190;5.722;2022-08-14T02:55:30;27.40;26.50
32173;DHT22;18679;45.190;5.722;2022-08-14T02:58:37;27.30;26.50
32173;DHT22;18679;45.190;5.722;2022-08-14T03:01:39;27.20;26.50
32173;DHT22;18679;45.190;5.722;2022-08-14T03:04:40;27.20;26.60
32173;DHT22;18679;45.190;5.722;2022-08-14T03:07:41;27.10;26.70
32173;DHT22;18679;45.190;5.722;2022-08-14T03:10:42;27.10;26.90
32173;DHT22;18679;45.190;5.722;2022-08-14T03:13:45;27.10;26.90
32173;DHT22;18679;45.190;5.722;2022-08-14T03:16:47;27.10;26.90
32173;DHT22;18679;45.190;5.722;2022-08-14T03:19:49;27.10;26.80
32173;DHT22;18679;45.190;5.722;2022-08-14T03:22:52;27.20;26.80
32173;DHT22;18679;45.190;5.722;2022-08-14T03:25:53;27.20;26.80
32173;DHT22;18679;45.190;5.722;2022-08-14T03:28:54;27.20;26.80
32173;DHT22;18679;45.190;5.722;2022-08-14T03:31:55;27.20;26.80
32173;DHT22;18679;45.190;5.722;2022-08-14T03:35:00;27.20;27.00
32173;DHT22;18679;45.190;5.722;2022-08-14T03:38:08;27.10;27.10
32173;DHT22;18679;45.190;5.722;2022-08-14T03:41:15;27.00;27.30
32173;DHT22;18679;45.190;5.722;2022-08-14T03:44:17;27.00;27.40
32173;DHT22;18679;45.190;5.722;2022-08-14T03:47:18;26.90;27.40
32173;DHT22;18679;45.190;5.722;2022-08-14T03:50:19;26.90;27.70
32173;DHT22;18679;45.190;5.722;2022-08-14T03:53:20;26.90;27.90
32173;DHT22;18679;45.190;5.722;2022-08-14T03:56:22;26.80;28.00
32173;DHT22;18679;45.190;5.722;2022-08-14T03:59:23;26.70;28.10
32173;DHT22;18679;45.190;5.722;2022-08-14T04:02:24;26.70;28.00
32173;DHT22;18679;45.190;5.722;2022-08-14T04:05:25;26.70;28.00
32173;DHT22;18679;45.190;5.722;2022-08-14T04:08:26;26.70;28.10
32173;DHT22;18679;45.190;5.722;2022-08-14T04:11:27;26.70;28.10
32173;DHT22;18679;45.190;5.722;2022-08-14T04:14:29;26.60;28.10
32173;DHT22;18679;45.190;5.722;2022-08-14T04:17:31;26.50;28.00
32173;DHT22;18679;45.190;5.722;2022-08-14T04:20:34;26.50;28.10
32173;DHT22;18679;45.190;5.722;2022-08-14T04:23:35;26.50;28.10
32173;DHT22;18679;45.190;5.722;2022-08-14T04:26:36;26.50;28.30
32173;DHT22;18679;45.190;5.722;2022-08-14T04:29:41;26.50;28.40
32173;DHT22;18679;45.190;5.722;2022-08-14T04:32:42;26.40;28.40
32173;DHT22;18679;45.190;5.722;2022-08-14T04:35:44;26.40;28.30
32173;DHT22;18679;45.190;5.722;2022-08-14T04:38:45;26.40;28.20
32173;DHT22;18679;45.190;5.722;2022-08-14T04:42:05;26.40;28.20
32173;DHT22;18679;45.190;5.722;2022-08-14T04:45:26;26.50;28.10
32173;DHT22;18679;45.190;5.722;2022-08-14T04:48:36;26.50;28.00
32173;DHT22;18679;45.190;5.722;2022-08-14T04:51:37;26.60;28.00
32173;DHT22;18679;45.190;5.722;2022-08-14T04:54:37;26.60;28.10
32173;DHT22;18679;45.190;5.722;2022-08-14T04:57:38;26.60;28.20
32173;DHT22;18679;45.190;5.722;2022-08-14T05:00:39;26.60;28.40
32173;DHT22;18679;45.190;5.722;2022-08-14T05:03:41;26.60;28.60
32173;DHT22;18679;45.190;5.722;2022-08-14T05:06:42;26.50;28.70
32173;DHT22;18679;45.190;5.722;2022-08-14T05:09:43;26.50;28.80
32173;DHT22;18679;45.190;5.722;2022-08-14T05:12:44;26.50;28.70
32173;DHT22;18679;45.190;5.722;2022-08-14T05:15:45;26.50;28.60
32173;DHT22;18679;45.190;5.722;2022-08-14T05:18:46;26.60;28.60
32173;DHT22;18679;45.190;5.722;2022-08-14T05:21:49;26.70;28.50
32173;DHT22;18679;45.190;5.722;2022-08-14T05:24:50;26.80;28.40
32173;DHT22;18679;45.190;5.722;2022-08-14T05:27:51;27.00;28.30
32173;DHT22;18679;45.190;5.722;2022-08-14T05:30:57;27.00;28.20
32173;DHT22;18679;45.190;5.722;2022-08-14T05:33:58;27.10;28.20
32173;DHT22;18679;45.190;5.722;2022-08-14T05:37:00;27.10;28.20
32173;DHT22;18679;45.190;5.722;2022-08-14T05:40:01;27.10;28.30
32173;DHT22;18679;45.190;5.722;2022-08-14T05:43:03;27.00;28.10
32173;DHT22;18679;45.190;5.722;2022-08-14T05:46:04;27.00;28.20
32173;DHT22;18679;45.190;5.722;2022-08-14T05:49:06;27.00;28.10
32173;DHT22;18679;45.190;5.722;2022-08-14T05:52:08;27.00;28.00
32173;DHT22;18679;45.190;5.722;2022-08-14T05:55:10;27.00;28.00
32173;DHT22;18679;45.190;5.722;2022-08-14T05:58:11;27.00;28.00
32173;DHT22;18679;45.190;5.722;2022-08-14T06:01:12;26.90;28.00
32173;DHT22;18679;45.190;5.722;2022-08-14T06:04:13;26.90;28.10
32173;DHT22;18679;45.190;5.722;2022-08-14T06:07:14;26.90;28.30
32173;DHT22;18679;45.190;5.722;2022-08-14T06:10:16;26.90;28.50
32173;DHT22;18679;45.190;5.722;2022-08-14T06:13:17;26.90;28.80
32173;DHT22;18679;45.190;5.722;2022-08-14T06:16:18;26.90;29.20
32173;DHT22;18679;45.190;5.722;2022-08-14T06:19:19;26.90;29.70
32173;DHT22;18679;45.190;5.722;2022-08-14T06:22:21;26.80;31.10
32173;DHT22;18679;45.190;5.722;2022-08-14T06:25:22;26.40;33.70
32173;DHT22;18679;45.190;5.722;2022-08-14T06:28:24;25.90;37.30
32173;DHT22;18679;45.190;5.722;2022-08-14T06:35:48;24.60;44.10
32173;DHT22;18679;45.190;5.722;2022-08-14T06:38:51;23.60;48.10
32173;DHT22;18679;45.190;5.722;2022-08-14T06:41:52;22.90;50.60
32173;DHT22;18679;45.190;5.722;2022-08-14T06:44:53;22.60;51.40
32173;DHT22;18679;45.190;5.722;2022-08-14T06:56:43;22.90;52.80
32173;DHT22;18679;45.190;5.722;2022-08-14T06:59:44;23.20;52.60
32173;DHT22;18679;45.190;5.722;2022-08-14T07:02:46;23.10;53.00
32173;DHT22;18679;45.190;5.722;2022-08-14T07:06:06;22.90;53.70
32173;DHT22;18679;45.190;5.722;2022-08-14T07:09:11;22.80;54.10
32173;DHT22;18679;45.190;5.722;2022-08-14T07:12:12;22.80;54.50
32173;DHT22;18679;45.190;5.722;2022-08-14T07:15:14;22.80;54.70
32173;DHT22;18679;45.190;5.722;2022-08-14T07:18:22;22.90;54.70
32173;DHT22;18679;45.190;5.722;2022-08-14T07:21:23;22.90;55.10
32173;DHT22;18679;45.190;5.722;2022-08-14T07:24:24;22.80;55.30
32173;DHT22;18679;45.190;5.722;2022-08-14T07:27:25;22.70;56.00
32173;DHT22;18679;45.190;5.722;2022-08-14T07:30:26;22.60;56.70
32173;DHT22;18679;45.190;5.722;2022-08-14T07:33:30;22.50;57.30
32173;DHT22;18679;45.190;5.722;2022-08-14T07:40:53;22.50;57.80
32173;DHT22;18679;45.190;5.722;2022-08-14T07:43:54;22.40;58.20
32173;DHT22;18679;45.190;5.722;2022-08-14T07:46:54;22.40;58.30
32173;DHT22;18679;45.190;5.722;2022-08-14T07:50:17;22.50;58.50
32173;DHT22;18679;45.190;5.722;2022-08-14T07:57:42;22.40;59.10
32173;DHT22;18679;45.190;5.722;2022-08-14T08:05:05;22.40;59.70
32173;DHT22;18679;45.190;5.722;2022-08-14T08:08:07;22.40;60.10
32173;DHT22;18679;45.190;5.722;2022-08-14T08:45:56;21.40;63.70
32173;DHT22;18679;45.190;5.722;2022-08-14T08:48:57;21.30;63.70
32173;DHT22;18679;45.190;5.722;2022-08-14T08:52:00;21.30;63.10
32173;DHT22;18679;45.190;5.722;2022-08-14T08:55:04;21.30;63.10
32173;DHT22;18679;45.190;5.722;2022-08-14T08:58:15;21.20;63.10
32173;DHT22;18679;45.190;5.722;2022-08-14T09:01:27;21.20;63.00
32173;DHT22;18679;45.190;5.722;2022-08-14T09:04:33;21.20;62.90
32173;DHT22;18679;45.190;5.722;2022-08-14T09:11:58;21.20;62.30
32173;DHT22;18679;45.190;5.722;2022-08-14T09:19:21;21.20;62.10
32173;DHT22;18679;45.190;5.722;2022-08-14T09:22:22;21.20;61.70
32173;DHT22;18679;45.190;5.722;2022-08-14T09:25:23;21.30;61.70
32173;DHT22;18679;45.190;5.722;2022-08-14T09:28:24;21.20;62.10
32173;DHT22;18679;45.190;5.722;2022-08-14T09:31:26;21.20;62.30
32173;DHT22;18679;45.190;5.722;2022-08-14T09:47:55;21.40;62.70
32173;DHT22;18679;45.190;5.722;2022-08-14T09:50:57;21.50;62.50
32173;DHT22;18679;45.190;5.722;2022-08-14T09:54:06;21.50;62.40
32173;DHT22;18679;45.190;5.722;2022-08-14T09:57:26;21.60;62.30
32173;DHT22;18679;45.190;5.722;2022-08-14T10:00:56;21.60;62.10
32173;DHT22;18679;45.190;5.722;2022-08-14T10:04:00;21.70;62.00
32173;DHT22;18679;45.190;5.722;2022-08-14T10:07:00;21.70;61.80
32173;DHT22;18679;45.190;5.722;2022-08-14T10:10:03;21.70;62.00
32173;DHT22;18679;45.190;5.722;2022-08-14T10:13:22;21.70;62.20
32173;DHT22;18679;45.190;5.722;2022-08-14T10:16:26;21.70;62.60
32173;DHT22;18679;45.190;5.722;2022-08-14T10:19:27;21.80;62.40
32173;DHT22;18679;45.190;5.722;2022-08-14T10:22:29;21.90;62.50
32173;DHT22;18679;45.190;5.722;2022-08-14T10:25:39;22.00;62.40
32173;DHT22;18679;45.190;5.722;2022-08-14T10:28:43;22.10;62.40
32173;DHT22;18679;45.190;5.722;2022-08-14T10:31:44;22.20;61.90
32173;DHT22;18679;45.190;5.722;2022-08-14T10:35:10;22.40;61.60
32173;DHT22;18679;45.190;5.722;2022-08-14T10:38:11;22.40;61.20
32173;DHT22;18679;45.190;5.722;2022-08-14T10:41:16;22.40;61.00
32173;DHT22;18679;45.190;5.722;2022-08-14T10:44:21;22.40;60.80
32173;DHT22;18679;45.190;5.722;2022-08-14T10:47:34;22.40;60.50
32173;DHT22;18679;45.190;5.722;2022-08-14T10:50:40;22.40;60.40
32173;DHT22;18679;45.190;5.722;2022-08-14T10:53:54;22.40;60.60
32173;DHT22;18679;45.190;5.722;2022-08-14T10:57:17;22.40;60.70
32173;DHT22;18679;45.190;5.722;2022-08-14T11:00:22;22.50;60.70
32173;DHT22;18679;45.190;5.722;2022-08-14T11:03:38;22.70;60.50
32173;DHT22;18679;45.190;5.722;2022-08-14T11:06:39;22.90;60.10
32173;DHT22;18679;45.190;5.722;2022-08-14T11:09:52;23.20;60.00
32173;DHT22;18679;45.190;5.722;2022-08-14T11:12:56;23.50;59.50
32173;DHT22;18679;45.190;5.722;2022-08-14T11:15:59;23.80;58.90
32173;DHT22;18679;45.190;5.722;2022-08-14T11:19:02;24.00;58.50
32173;DHT22;18679;45.190;5.722;2022-08-14T11:22:03;24.20;58.30
32173;DHT22;18679;45.190;5.722;2022-08-14T11:25:07;24.30;58.00
32173;DHT22;18679;45.190;5.722;2022-08-14T11:28:08;24.50;57.60
32173;DHT22;18679;45.190;5.722;2022-08-14T11:31:11;24.80;57.30
32173;DHT22;18679;45.190;5.722;2022-08-14T11:34:13;25.00;56.60
32173;DHT22;18679;45.190;5.722;2022-08-14T11:37:14;25.20;56.10
32173;DHT22;18679;45.190;5.722;2022-08-14T11:40:15;25.20;55.80
32173;DHT22;18679;45.190;5.722;2022-08-14T11:43:17;25.30;55.70
32173;DHT22;18679;45.190;5.722;2022-08-14T11:46:20;25.30;55.80
32173;DHT22;18679;45.190;5.722;2022-08-14T11:49:26;25.40;55.90
32173;DHT22;18679;45.190;5.722;2022-08-14T11:52:34;25.50;55.90
32173;DHT22;18679;45.190;5.722;2022-08-14T11:55:38;25.70;55.40
32173;DHT22;18679;45.190;5.722;2022-08-14T11:58:39;25.80;54.90
32173;DHT22;18679;45.190;5.722;2022-08-14T12:01:40;25.90;55.30
32173;DHT22;18679;45.190;5.722;2022-08-14T12:04:52;25.90;54.50
32173;DHT22;18679;45.190;5.722;2022-08-14T12:07:52;25.80;54.60
32173;DHT22;18679;45.190;5.722;2022-08-14T12:10:56;25.80;54.80
32173;DHT22;18679;45.190;5.722;2022-08-14T12:14:06;25.80;54.80
32173;DHT22;18679;45.190;5.722;2022-08-14T12:17:08;25.90;55.00
32173;DHT22;18679;45.190;5.722;2022-08-14T12:20:09;26.00;55.20
32173;DHT22;18679;45.190;5.722;2022-08-14T12:23:22;26.00;54.90
32173;DHT22;18679;45.190;5.722;2022-08-14T12:26:23;26.10;54.80
32173;DHT22;18679;45.190;5.722;2022-08-14T12:29:24;26.20;54.80
32173;DHT22;18679;45.190;5.722;2022-08-14T12:32:25;26.30;54.90
32173;DHT22;18679;45.190;5.722;2022-08-14T12:35:46;26.60;54.80
32173;DHT22;18679;45.190;5.722;2022-08-14T12:38:49;26.90;54.70
32173;DHT22;18679;45.190;5.722;2022-08-14T12:41:55;27.00;54.10
32173;DHT22;18679;45.190;5.722;2022-08-14T12:45:06;27.10;53.80
32173;DHT22;18679;45.190;5.722;2022-08-14T12:48:07;27.20;53.60
32173;DHT22;18679;45.190;5.722;2022-08-14T12:51:20;27.50;53.40
32173;DHT22;18679;45.190;5.722;2022-08-14T12:54:22;27.70;53.10
32173;DHT22;18679;45.190;5.722;2022-08-14T12:57:38;27.90;52.60
32173;DHT22;18679;45.190;5.722;2022-08-14T13:00:47;27.90;52.40
32173;DHT22;18679;45.190;5.722;2022-08-14T13:03:50;28.10;52.60
32173;DHT22;18679;45.190;5.722;2022-08-14T13:06:52;28.20;51.80
32173;DHT22;18679;45.190;5.722;2022-08-14T13:09:56;28.40;51.30
32173;DHT22;18679;45.190;5.722;2022-08-14T13:12:58;28.80;50.80
32173;DHT22;18679;45.190;5.722;2022-08-14T13:16:00;29.20;50.00
32173;DHT22;18679;45.190;5.722;2022-08-14T13:19:02;29.50;49.60
32173;DHT22;18679;45.190;5.722;2022-08-14T13:22:03;30.00;48.90
32173;DHT22;18679;45.190;5.722;2022-08-14T13:25:04;30.00;48.70
32173;DHT22;18679;45.190;5.722;2022-08-14T13:28:06;29.70;48.60
32173;DHT22;18679;45.190;5.722;2022-08-14T13:31:11;29.40;48.80
32173;DHT22;18679;45.190;5.722;2022-08-14T13:34:12;29.10;49.00
32173;DHT22;18679;45.190;5.722;2022-08-14T13:37:15;28.90;49.50
32173;DHT22;18679;45.190;5.722;2022-08-14T13:40:19;28.80;50.00
32173;DHT22;18679;45.190;5.722;2022-08-14T13:43:21;28.70;49.90
32173;DHT22;18679;45.190;5.722;2022-08-14T13:46:24;28.60;49.90
32173;DHT22;18679;45.190;5.722;2022-08-14T13:49:26;28.50;50.00
32173;DHT22;18679;45.190;5.722;2022-08-14T13:52:39;28.30;50.50
32173;DHT22;18679;45.190;5.722;2022-08-14T13:55:41;28.30;50.70
32173;DHT22;18679;45.190;5.722;2022-08-14T13:58:44;29.20;49.60
32173;DHT22;18679;45.190;5.722;2022-08-14T14:01:45;30.70;46.60
32173;DHT22;18679;45.190;5.722;2022-08-14T14:04:47;31.90;44.40
32173;DHT22;18679;45.190;5.722;2022-08-14T14:07:51;32.50;42.60
32173;DHT22;18679;45.190;5.722;2022-08-14T14:10:54;32.20;42.40
32173;DHT22;18679;45.190;5.722;2022-08-14T14:13:57;31.70;43.00
32173;DHT22;18679;45.190;5.722;2022-08-14T14:17:04;31.20;43.60
32173;DHT22;18679;45.190;5.722;2022-08-14T14:20:08;30.70;44.30
32173;DHT22;18679;45.190;5.722;2022-08-14T14:23:13;30.20;45.10
32173;DHT22;18679;45.190;5.722;2022-08-14T14:26:15;29.80;45.80
32173;DHT22;18679;45.190;5.722;2022-08-14T14:29:21;29.40;46.40
32173;DHT22;18679;45.190;5.722;2022-08-14T14:32:29;29.00;46.90
32173;DHT22;18679;45.190;5.722;2022-08-14T14:35:30;28.70;47.60
32173;DHT22;18679;45.190;5.722;2022-08-14T14:38:32;28.40;48.20
32173;DHT22;18679;45.190;5.722;2022-08-14T14:41:37;28.30;48.70
32173;DHT22;18679;45.190;5.722;2022-08-14T14:44:40;28.10;49.00
32173;DHT22;18679;45.190;5.722;2022-08-14T14:47:49;28.00;49.50
32173;DHT22;18679;45.190;5.722;2022-08-14T14:50:51;27.80;49.90
32173;DHT22;18679;45.190;5.722;2022-08-14T14:53:52;27.70;50.40
32173;DHT22;18679;45.190;5.722;2022-08-14T14:56:54;27.50;50.70
32173;DHT22;18679;45.190;5.722;2022-08-14T14:59:56;27.40;51.10
32173;DHT22;18679;45.190;5.722;2022-08-14T15:02:57;27.20;51.60
32173;DHT22;18679;45.190;5.722;2022-08-14T15:10:21;26.90;53.60
32173;DHT22;18679;45.190;5.722;2022-08-14T15:13:22;26.70;54.50
32173;DHT22;18679;45.190;5.722;2022-08-14T15:20:45;26.10;55.80
32173;DHT22;18679;45.190;5.722;2022-08-14T15:23:46;25.60;57.40
32173;DHT22;18679;45.190;5.722;2022-08-14T15:26:47;25.20;58.60
32173;DHT22;18679;45.190;5.722;2022-08-14T15:29:48;24.90;59.30
32173;DHT22;18679;45.190;5.722;2022-08-14T15:32:50;24.70;60.50
32173;DHT22;18679;45.190;5.722;2022-08-14T15:35:51;24.50;62.20
32173;DHT22;18679;45.190;5.722;2022-08-14T15:38:54;24.40;63.90
32173;DHT22;18679;45.190;5.722;2022-08-14T15:41:55;24.20;64.90
32173;DHT22;18679;45.190;5.722;2022-08-14T15:44:59;24.30;65.40
32173;DHT22;18679;45.190;5.722;2022-08-14T15:48:01;24.40;65.90
32173;DHT22;18679;45.190;5.722;2022-08-14T15:51:03;24.80;65.60
32173;DHT22;18679;45.190;5.722;2022-08-14T15:54:04;25.00;64.70
32173;DHT22;18679;45.190;5.722;2022-08-14T15:57:07;25.30;64.00
32173;DHT22;18679;45.190;5.722;2022-08-14T16:00:09;25.40;63.90
32173;DHT22;18679;45.190;5.722;2022-08-14T16:03:28;25.50;63.70
32173;DHT22;18679;45.190;5.722;2022-08-14T16:06:29;25.80;63.40
32173;DHT22;18679;45.190;5.722;2022-08-14T16:09:31;26.20;61.70
32173;DHT22;18679;45.190;5.722;2022-08-14T16:12:31;26.80;60.40
32173;DHT22;18679;45.190;5.722;2022-08-14T16:15:32;27.60;58.50
32173;DHT22;18679;45.190;5.722;2022-08-14T16:18:36;28.50;57.00
32173;DHT22;18679;45.190;5.722;2022-08-14T16:21:39;29.60;55.30
32173;DHT22;18679;45.190;5.722;2022-08-14T16:24:42;30.70;53.20
32173;DHT22;18679;45.190;5.722;2022-08-14T16:27:44;31.80;51.20
32173;DHT22;18679;45.190;5.722;2022-08-14T16:30:45;32.70;48.70
32173;DHT22;18679;45.190;5.722;2022-08-14T16:33:48;33.40;46.60
32173;DHT22;18679;45.190;5.722;2022-08-14T16:36:49;33.80;46.00
32173;DHT22;18679;45.190;5.722;2022-08-14T16:39:51;33.70;45.70
32173;DHT22;18679;45.190;5.722;2022-08-14T16:42:54;33.00;46.50
32173;DHT22;18679;45.190;5.722;2022-08-14T16:45:58;32.10;47.50
32173;DHT22;18679;45.190;5.722;2022-08-14T16:49:07;31.20;48.30
32173;DHT22;18679;45.190;5.722;2022-08-14T16:52:11;30.40;49.20
32173;DHT22;18679;45.190;5.722;2022-08-14T16:55:17;29.60;50.20
32173;DHT22;18679;45.190;5.722;2022-08-14T16:58:20;28.90;51.20
32173;DHT22;18679;45.190;5.722;2022-08-14T17:01:24;28.40;52.20
32173;DHT22;18679;45.190;5.722;2022-08-14T17:04:26;27.90;53.10
32173;DHT22;18679;45.190;5.722;2022-08-14T17:07:31;27.60;53.70
32173;DHT22;18679;45.190;5.722;2022-08-14T17:13:44;27.00;55.10
32173;DHT22;18679;45.190;5.722;2022-08-14T17:16:45;26.80;55.70
32173;DHT22;18679;45.190;5.722;2022-08-14T17:19:46;26.60;55.90
32173;DHT22;18679;45.190;5.722;2022-08-14T17:22:57;26.50;56.20
32173;DHT22;18679;45.190;5.722;2022-08-14T17:25:58;26.40;56.50
32173;DHT22;18679;45.190;5.722;2022-08-14T17:29:19;26.30;56.80
32173;DHT22;18679;45.190;5.722;2022-08-14T17:32:21;26.20;57.20
32173;DHT22;18679;45.190;5.722;2022-08-14T17:35:26;26.20;57.30
32173;DHT22;18679;45.190;5.722;2022-08-14T17:38:27;26.20;57.40
32173;DHT22;18679;45.190;5.722;2022-08-14T17:41:30;26.10;57.60
32173;DHT22;18679;45.190;5.722;2022-08-14T17:44:33;26.20;57.90
32173;DHT22;18679;45.190;5.722;2022-08-14T17:47:35;26.10;58.10
32173;DHT22;18679;45.190;5.722;2022-08-14T17:50:41;26.10;58.30
32173;DHT22;18679;45.190;5.722;2022-08-14T17:53:45;26.00;58.50
32173;DHT22;18679;45.190;5.722;2022-08-14T17:56:46;26.00;58.80
32173;DHT22;18679;45.190;5.722;2022-08-14T17:59:51;26.00;59.00
32173;DHT22;18679;45.190;5.722;2022-08-14T18:02:56;25.90;59.30
32173;DHT22;18679;45.190;5.722;2022-08-14T18:05:57;25.90;59.50
32173;DHT22;18679;45.190;5.722;2022-08-14T18:08:59;25.80;59.70
32173;DHT22;18679;45.190;5.722;2022-08-14T18:12:01;25.80;59.90
32173;DHT22;18679;45.190;5.722;2022-08-14T18:15:12;25.70;60.00
32173;DHT22;18679;45.190;5.722;2022-08-14T18:18:14;25.70;60.30
32173;DHT22;18679;45.190;5.722;2022-08-14T18:21:15;25.60;60.50
32173;DHT22;18679;45.190;5.722;2022-08-14T18:24:17;25.60;60.80
32173;DHT22;18679;45.190;5.722;2022-08-14T18:27:20;25.60;61.00
32173;DHT22;18679;45.190;5.722;2022-08-14T18:30:23;25.60;61.20
32173;DHT22;18679;45.190;5.722;2022-08-14T18:33:25;25.60;61.30
32173;DHT22;18679;45.190;5.722;2022-08-14T18:36:52;25.60;61.50
32173;DHT22;18679;45.190;5.722;2022-08-14T18:43:45;25.50;62.80
32173;DHT22;18679;45.190;5.722;2022-08-14T18:50:23;25.40;62.40
32173;DHT22;18679;45.190;5.722;2022-08-14T18:53:24;25.40;62.50
32173;DHT22;18679;45.190;5.722;2022-08-14T18:56:56;25.40;62.50
32173;DHT22;18679;45.190;5.722;2022-08-14T18:59:57;25.30;62.70
32173;DHT22;18679;45.190;5.722;2022-08-14T19:02:59;25.30;62.60
32173;DHT22;18679;45.190;5.722;2022-08-14T19:06:03;25.30;62.60
32173;DHT22;18679;45.190;5.722;2022-08-14T19:09:05;25.20;62.10
32173;DHT22;18679;45.190;5.722;2022-08-14T19:12:06;25.20;61.90
32173;DHT22;18679;45.190;5.722;2022-08-14T19:15:08;25.20;61.80
32173;DHT22;18679;45.190;5.722;2022-08-14T19:27:34;25.20;62.40
32173;DHT22;18679;45.190;5.722;2022-08-14T19:30:36;25.30;62.30
32173;DHT22;18679;45.190;5.722;2022-08-14T19:36:50;25.40;62.50
32173;DHT22;18679;45.190;5.722;2022-08-14T19:40:15;25.40;62.40
32173;DHT22;18679;45.190;5.722;2022-08-14T19:43:27;25.40;62.40
32173;DHT22;18679;45.190;5.722;2022-08-14T19:46:30;25.40;62.20
32173;DHT22;18679;45.190;5.722;2022-08-14T19:49:39;25.40;62.30
32173;DHT22;18679;45.190;5.722;2022-08-14T19:52:40;25.30;62.50
32173;DHT22;18679;45.190;5.722;2022-08-14T19:55:41;25.20;62.60
32173;DHT22;18679;45.190;5.722;2022-08-14T19:58:43;25.20;62.80
32173;DHT22;18679;45.190;5.722;2022-08-14T20:01:49;25.20;62.90
32173;DHT22;18679;45.190;5.722;2022-08-14T20:05:01;25.20;63.10
32173;DHT22;18679;45.190;5.722;2022-08-14T20:08:03;25.10;63.10
32173;DHT22;18679;45.190;5.722;2022-08-14T20:11:17;25.10;63.20
32173;DHT22;18679;45.190;5.722;2022-08-14T20:14:22;25.00;63.20
32173;DHT22;18679;45.190;5.722;2022-08-14T20:17:26;25.00;63.20
32173;DHT22;18679;45.190;5.722;2022-08-14T20:20:27;25.00;63.40
32173;DHT22;18679;45.190;5.722;2022-08-14T20:23:29;25.00;63.30
32173;DHT22;18679;45.190;5.722;2022-08-14T20:26:30;25.00;63.30
32173;DHT22;18679;45.190;5.722;2022-08-14T20:29:31;25.00;63.20
32173;DHT22;18679;45.190;5.722;2022-08-14T20:32:33;25.00;63.10
32173;DHT22;18679;45.190;5.722;2022-08-14T20:38:38;25.00;63.10
32173;DHT22;18679;45.190;5.722;2022-08-14T20:41:46;25.00;63.20
32173;DHT22;18679;45.190;5.722;2022-08-14T20:44:47;25.00;63.30
32173;DHT22;18679;45.190;5.722;2022-08-14T20:48:07;25.00;63.30
32173;DHT22;18679;45.190;5.722;2022-08-14T20:51:25;24.90;63.50
32173;DHT22;18679;45.190;5.722;2022-08-14T20:54:30;24.80;63.90
32173;DHT22;18679;45.190;5.722;2022-08-14T20:57:36;24.80;64.00
32173;DHT22;18679;45.190;5.722;2022-08-14T21:00:42;24.80;64.20
32173;DHT22;18679;45.190;5.722;2022-08-14T21:06:45;24.80;64.40
32173;DHT22;18679;45.190;5.722;2022-08-14T21:09:49;24.80;64.30
32173;DHT22;18679;45.190;5.722;2022-08-14T21:12:51;24.70;64.40
32173;DHT22;18679;45.190;5.722;2022-08-14T21:15:54;24.70;64.50
32173;DHT22;18679;45.190;5.722;2022-08-14T21:18:55;24.70;64.50
32173;DHT22;18679;45.190;5.722;2022-08-14T21:21:58;24.70;64.60
32173;DHT22;18679;45.190;5.722;2022-08-14T21:25:02;24.50;64.50